sensor_id;sensor_type;location;lat;lon;timestamp;pressure;altitude;pressure_sealevel;temperature;humidity
73016;BME280;61893;50.074;14.440;2023-04-07T00:02:12;98632.59;;;2.51;60.74
73016;BME280;61893;50.074;14.440;2023-04-07T00:04:37;98635.00;;;2.54;60.83
73016;BME280;61893;50.074;14.440;2023-04-07T00:07:06;98632.78;;;2.48;60.95
73016;BME280;61893;50.074;14.440;2023-04-07T00:09:50;98635.31;;;2.50;61.05
73016;BME280;61893;50.074;14.440;2023-04-07T00:12:42;98625.59;;;2.37;60.97
73016;BME280;61893;50.074;14.440;2023-04-07T00:15:16;98635.47;;;2.34;61.68
73016;BME280;61893;50.074;14.440;2023-04-07T00:17:57;98631.09;;;2.06;61.81
73016;BME280;61893;50.074;14.440;2023-04-07T00:20:42;98627.03;;;2.29;62.20
73016;BME280;61893;50.074;14.440;2023-04-07T00:23:08;98630.63;;;2.13;61.51
73016;BME280;61893;50.074;14.440;2023-04-07T00:25:47;98630.34;;;2.18;61.41
73016;BME280;61893;50.074;14.440;2023-04-07T00:28:34;98625.34;;;2.00;61.32
73016;BME280;61893;50.074;14.440;2023-04-07T00:31:05;98625.59;;;1.96;62.35
73016;BME280;61893;50.074;14.440;2023-04-07T00:33:39;98632.84;;;1.92;62.90
73016;BME280;61893;50.074;14.440;2023-04-07T00:36:06;98625.22;;;2.02;61.61
73016;BME280;61893;50.074;14.440;2023-04-07T00:38:31;98618.75;;;1.93;61.62
73016;BME280;61893;50.074;14.440;2023-04-07T00:41:00;98616.13;;;1.93;62.18
73016;BME280;61893;50.074;14.440;2023-04-07T00:43:28;98625.03;;;1.91;62.11
73016;BME280;61893;50.074;14.440;2023-04-07T00:46:00;98617.19;;;1.76;63.03
73016;BME280;61893;50.074;14.440;2023-04-07T00:48:41;98612.50;;;1.96;62.49
73016;BME280;61893;50.074;14.440;2023-04-07T00:51:09;98608.34;;;2.06;62.39
73016;BME280;61893;50.074;14.440;2023-04-07T00:53:47;98601.19;;;2.08;61.79
73016;BME280;61893;50.074;14.440;2023-04-07T00:56:34;98604.06;;;1.91;62.13
73016;BME280;61893;50.074;14.440;2023-04-07T00:59:00;98604.16;;;1.89;62.19
73016;BME280;61893;50.074;14.440;2023-04-07T01:02:10;98591.84;;;2.04;62.44
73016;BME280;61893;50.074;14.440;2023-04-07T01:04:50;98598.19;;;2.14;62.24
73016;BME280;61893;50.074;14.440;2023-04-07T01:07:45;98594.75;;;1.99;62.59
73016;BME280;61893;50.074;14.440;2023-04-07T01:10:59;98590.53;;;1.97;62.51
73016;BME280;61893;50.074;14.440;2023-04-07T01:13:48;98588.34;;;1.76;62.88
73016;BME280;61893;50.074;14.440;2023-04-07T01:16:22;98589.66;;;1.84;63.30
73016;BME280;61893;50.074;14.440;2023-04-07T01:19:08;98588.63;;;1.86;63.74
73016;BME280;61893;50.074;14.440;2023-04-07T01:21:59;98595.75;;;1.70;64.38
73016;BME280;61893;50.074;14.440;2023-04-07T01:30:21;98593.41;;;1.22;65.84
73016;BME280;61893;50.074;14.440;2023-04-07T01:32:54;98586.56;;;1.48;65.09
73016;BME280;61893;50.074;14.440;2023-04-07T01:35:22;98587.06;;;1.55;65.39
73016;BME280;61893;50.074;14.440;2023-04-07T01:37:52;98577.78;;;1.64;65.15
73016;BME280;61893;50.074;14.440;2023-04-07T01:40:21;98583.69;;;1.24;65.12
73016;BME280;61893;50.074;14.440;2023-04-07T01:42:48;98585.94;;;1.45;65.80
73016;BME280;61893;50.074;14.440;2023-04-07T01:45:17;98579.56;;;1.34;65.63
73016;BME280;61893;50.074;14.440;2023-04-07T01:47:49;98579.91;;;1.57;65.21
73016;BME280;61893;50.074;14.440;2023-04-07T01:50:16;98582.28;;;1.62;65.27
73016;BME280;61893;50.074;14.440;2023-04-07T01:52:42;98577.03;;;1.62;65.06
73016;BME280;61893;50.074;14.440;2023-04-07T01:55:30;98574.78;;;1.55;64.95
73016;BME280;61893;50.074;14.440;2023-04-07T01:57:56;98570.75;;;1.64;65.69
73016;BME280;61893;50.074;14.440;2023-04-07T02:00:21;98578.81;;;1.61;64.53
73016;BME280;61893;50.074;14.440;2023-04-07T02:03:28;98564.66;;;1.64;65.53
73016;BME280;61893;50.074;14.440;2023-04-07T02:06:03;98557.81;;;1.61;65.08
73016;BME280;61893;50.074;14.440;2023-04-07T02:08:48;98560.63;;;1.72;65.23
73016;BME280;61893;50.074;14.440;2023-04-07T02:11:19;98552.25;;;1.80;64.65
73016;BME280;61893;50.074;14.440;2023-04-07T02:13:55;98559.28;;;1.79;63.74
73016;BME280;61893;50.074;14.440;2023-04-07T02:16:22;98560.63;;;1.72;64.16
73016;BME280;61893;50.074;14.440;2023-04-07T02:19:02;98564.38;;;1.54;64.88
73016;BME280;61893;50.074;14.440;2023-04-07T02:21:43;98554.00;;;1.38;64.81
73016;BME280;61893;50.074;14.440;2023-04-07T02:24:19;98557.47;;;1.53;64.09
73016;BME280;61893;50.074;14.440;2023-04-07T02:26:48;98556.22;;;1.58;64.21
73016;BME280;61893;50.074;14.440;2023-04-07T02:29:38;98564.56;;;1.51;65.20
73016;BME280;61893;50.074;14.440;2023-04-07T02:32:13;98562.06;;;1.49;65.33
73016;BME280;61893;50.074;14.440;2023-04-07T02:35:00;98559.31;;;1.22;66.49
73016;BME280;61893;50.074;14.440;2023-04-07T02:37:30;98555.13;;;1.20;66.65
73016;BME280;61893;50.074;14.440;2023-04-07T02:39:55;98548.94;;;1.21;66.83
73016;BME280;61893;50.074;14.440;2023-04-07T02:42:21;98545.31;;;1.09;65.60
73016;BME280;61893;50.074;14.440;2023-04-07T02:44:56;98542.56;;;1.25;66.00
73016;BME280;61893;50.074;14.440;2023-04-07T02:48:00;98537.50;;;1.50;65.13
73016;BME280;61893;50.074;14.440;2023-04-07T02:50:25;98547.53;;;1.58;65.11
73016;BME280;61893;50.074;14.440;2023-04-07T02:52:53;98544.16;;;1.27;66.25
73016;BME280;61893;50.074;14.440;2023-04-07T02:55:37;98543.72;;;1.06;66.69
73016;BME280;61893;50.074;14.440;2023-04-07T02:58:08;98548.38;;;1.01;66.89
73016;BME280;61893;50.074;14.440;2023-04-07T03:00:34;98551.94;;;1.15;66.41
73016;BME280;61893;50.074;14.440;2023-04-07T03:03:00;98545.66;;;1.03;66.57
73016;BME280;61893;50.074;14.440;2023-04-07T03:05:29;98537.44;;;0.95;66.99
73016;BME280;61893;50.074;14.440;2023-04-07T03:08:09;98540.06;;;1.09;66.91
73016;BME280;61893;50.074;14.440;2023-04-07T03:10:36;98543.97;;;1.02;66.97
73016;BME280;61893;50.074;14.440;2023-04-07T03:13:12;98535.75;;;1.08;66.33
73016;BME280;61893;50.074;14.440;2023-04-07T03:16:02;98538.53;;;1.05;67.35
73016;BME280;61893;50.074;14.440;2023-04-07T03:18:30;98534.88;;;0.93;67.67
73016;BME280;61893;50.074;14.440;2023-04-07T03:21:09;98539.31;;;1.21;66.12
73016;BME280;61893;50.074;14.440;2023-04-07T03:23:34;98533.75;;;1.26;66.76
73016;BME280;61893;50.074;14.440;2023-04-07T03:26:00;98525.72;;;1.43;65.63
73016;BME280;61893;50.074;14.440;2023-04-07T03:28:50;98523.13;;;1.43;65.75
73016;BME280;61893;50.074;14.440;2023-04-07T03:31:25;98523.44;;;1.51;65.45
73016;BME280;61893;50.074;14.440;2023-04-07T03:33:51;98518.84;;;1.69;65.29
73016;BME280;61893;50.074;14.440;2023-04-07T03:36:22;98524.75;;;1.58;64.79
73016;BME280;61893;50.074;14.440;2023-04-07T03:38:50;98526.72;;;1.69;64.57
73016;BME280;61893;50.074;14.440;2023-04-07T03:41:32;98519.88;;;1.67;64.66
73016;BME280;61893;50.074;14.440;2023-04-07T03:44:07;98517.84;;;1.57;64.67
73016;BME280;61893;50.074;14.440;2023-04-07T03:46:33;98525.13;;;1.67;64.45
73016;BME280;61893;50.074;14.440;2023-04-07T03:48:58;98523.69;;;1.75;64.27
73016;BME280;61893;50.074;14.440;2023-04-07T03:51:25;98522.53;;;1.52;64.90
73016;BME280;61893;50.074;14.440;2023-04-07T03:53:56;98520.56;;;1.42;65.13
73016;BME280;61893;50.074;14.440;2023-04-07T03:56:25;98520.00;;;1.37;65.01
73016;BME280;61893;50.074;14.440;2023-04-07T03:59:07;98519.25;;;1.49;64.72
73016;BME280;61893;50.074;14.440;2023-04-07T04:01:33;98520.00;;;1.37;64.37
73016;BME280;61893;50.074;14.440;2023-04-07T04:04:07;98519.63;;;1.14;64.88
73016;BME280;61893;50.074;14.440;2023-04-07T04:06:33;98521.78;;;1.36;64.70
73016;BME280;61893;50.074;14.440;2023-04-07T04:09:00;98520.22;;;1.19;65.14
73016;BME280;61893;50.074;14.440;2023-04-07T04:12:01;98522.63;;;1.08;66.55
73016;BME280;61893;50.074;14.440;2023-04-07T04:14:27;98519.63;;;1.00;66.67
73016;BME280;61893;50.074;14.440;2023-04-07T04:16:56;98520.66;;;0.97;66.99
73016;BME280;61893;50.074;14.440;2023-04-07T04:19:37;98528.44;;;1.13;66.38
73016;BME280;61893;50.074;14.440;2023-04-07T04:22:29;98529.41;;;1.26;65.97
73016;BME280;61893;50.074;14.440;2023-04-07T04:24:54;98528.00;;;1.21;66.48
73016;BME280;61893;50.074;14.440;2023-04-07T04:27:51;98528.59;;;0.81;66.88
73016;BME280;61893;50.074;14.440;2023-04-07T04:30:23;98528.44;;;0.99;67.01
73016;BME280;61893;50.074;14.440;2023-04-07T04:33:02;98532.94;;;1.11;67.06
73016;BME280;61893;50.074;14.440;2023-04-07T04:35:30;98518.78;;;1.42;65.42
73016;BME280;61893;50.074;14.440;2023-04-07T04:38:04;98524.88;;;1.43;65.51
73016;BME280;61893;50.074;14.440;2023-04-07T04:40:29;98528.69;;;1.51;65.42
73016;BME280;61893;50.074;14.440;2023-04-07T04:43:05;98527.22;;;1.47;65.08
73016;BME280;61893;50.074;14.440;2023-04-07T04:45:51;98535.28;;;1.30;65.33
73016;BME280;61893;50.074;14.440;2023-04-07T04:48:26;98528.81;;;1.07;66.69
73016;BME280;61893;50.074;14.440;2023-04-07T04:50:54;98527.50;;;1.14;66.33
73016;BME280;61893;50.074;14.440;2023-04-07T04:53:23;98519.44;;;1.17;66.24
73016;BME280;61893;50.074;14.440;2023-04-07T04:55:51;98523.00;;;1.16;66.69
73016;BME280;61893;50.074;14.440;2023-04-07T04:58:20;98530.69;;;1.05;66.67
73016;BME280;61893;50.074;14.440;2023-04-07T05:00:55;98531.63;;;1.18;66.58
73016;BME280;61893;50.074;14.440;2023-04-07T05:03:30;98527.97;;;1.49;65.71
73016;BME280;61893;50.074;14.440;2023-04-07T05:05:55;98537.06;;;1.29;66.96
73016;BME280;61893;50.074;14.440;2023-04-07T05:08:38;98529.66;;;1.22;66.81
73016;BME280;61893;50.074;14.440;2023-04-07T05:11:22;98533.69;;;0.99;66.94
73016;BME280;61893;50.074;14.440;2023-04-07T05:13:56;98528.50;;;1.40;65.97
73016;BME280;61893;50.074;14.440;2023-04-07T05:16:28;98535.28;;;1.30;66.10
73016;BME280;61893;50.074;14.440;2023-04-07T05:19:02;98535.09;;;1.33;66.09
73016;BME280;61893;50.074;14.440;2023-04-07T05:21:28;98528.97;;;1.61;65.41
73016;BME280;61893;50.074;14.440;2023-04-07T05:24:17;98519.94;;;1.79;64.63
73016;BME280;61893;50.074;14.440;2023-04-07T05:27:00;98523.41;;;2.07;63.54
73016;BME280;61893;50.074;14.440;2023-04-07T05:29:54;98515.34;;;2.10;64.23
73016;BME280;61893;50.074;14.440;2023-04-07T05:32:55;98518.50;;;1.88;64.62
73016;BME280;61893;50.074;14.440;2023-04-07T05:35:21;98515.47;;;1.94;63.57
73016;BME280;61893;50.074;14.440;2023-04-07T05:37:48;98509.59;;;2.18;62.95
73016;BME280;61893;50.074;14.440;2023-04-07T05:40:19;98504.63;;;2.53;62.20
73016;BME280;61893;50.074;14.440;2023-04-07T05:42:49;98504.03;;;2.88;60.99
73016;BME280;61893;50.074;14.440;2023-04-07T05:45:15;98509.06;;;3.16;59.85
73016;BME280;61893;50.074;14.440;2023-04-07T05:47:50;98510.75;;;3.17;59.42
73016;BME280;61893;50.074;14.440;2023-04-07T05:50:23;98508.38;;;3.51;58.79
73016;BME280;61893;50.074;14.440;2023-04-07T05:53:05;98510.44;;;3.72;57.25
73016;BME280;61893;50.074;14.440;2023-04-07T05:55:46;98509.34;;;4.11;56.56
73016;BME280;61893;50.074;14.440;2023-04-07T05:58:25;98511.94;;;4.24;55.74
73016;BME280;61893;50.074;14.440;2023-04-07T06:00:52;98504.69;;;4.39;55.67
73016;BME280;61893;50.074;14.440;2023-04-07T06:04:25;98516.16;;;4.38;55.29
73016;BME280;61893;50.074;14.440;2023-04-07T06:07:15;98513.03;;;4.09;56.09
73016;BME280;61893;50.074;14.440;2023-04-07T06:09:55;98513.16;;;4.31;54.89
73016;BME280;61893;50.074;14.440;2023-04-07T06:13:02;98516.06;;;4.39;55.61
73016;BME280;61893;50.074;14.440;2023-04-07T06:16:13;98513.75;;;4.35;55.44
73016;BME280;61893;50.074;14.440;2023-04-07T06:19:49;98511.47;;;4.30;55.83
73016;BME280;61893;50.074;14.440;2023-04-07T06:22:35;98512.31;;;4.66;55.21
73016;BME280;61893;50.074;14.440;2023-04-07T06:25:53;98509.19;;;4.25;55.44
73016;BME280;61893;50.074;14.440;2023-04-07T06:29:17;98506.78;;;4.22;56.09
73016;BME280;61893;50.074;14.440;2023-04-07T06:33:00;98505.88;;;4.70;53.53
73016;BME280;61893;50.074;14.440;2023-04-07T06:35:54;98502.13;;;5.41;52.11
73016;BME280;61893;50.074;14.440;2023-04-07T06:39:03;98506.47;;;5.86;50.49
73016;BME280;61893;50.074;14.440;2023-04-07T06:41:59;98501.41;;;6.38;48.57
73016;BME280;61893;50.074;14.440;2023-04-07T06:45:46;98504.50;;;7.57;46.47
73016;BME280;61893;50.074;14.440;2023-04-07T06:49:10;98500.63;;;7.61;45.38
73016;BME280;61893;50.074;14.440;2023-04-07T06:52:32;98506.72;;;8.02;44.79
73016;BME280;61893;50.074;14.440;2023-04-07T06:56:16;98505.44;;;7.87;45.46
73016;BME280;61893;50.074;14.440;2023-04-07T06:59:21;98499.47;;;8.04;44.08
73016;BME280;61893;50.074;14.440;2023-04-07T07:02:33;98500.44;;;8.03;44.89
73016;BME280;61893;50.074;14.440;2023-04-07T07:06:09;98494.72;;;8.95;43.37
73016;BME280;61893;50.074;14.440;2023-04-07T07:08:56;98495.66;;;9.04;42.98
73016;BME280;61893;50.074;14.440;2023-04-07T07:11:47;98494.66;;;9.15;42.42
73016;BME280;61893;50.074;14.440;2023-04-07T07:14:13;98486.97;;;9.59;41.41
73016;BME280;61893;50.074;14.440;2023-04-07T07:16:42;98495.31;;;9.36;41.04
73016;BME280;61893;50.074;14.440;2023-04-07T07:19:08;98494.19;;;9.66;40.61
73016;BME280;61893;50.074;14.440;2023-04-07T07:21:35;98495.78;;;9.50;40.34
73016;BME280;61893;50.074;14.440;2023-04-07T07:24:02;98488.13;;;9.74;40.46
73016;BME280;61893;50.074;14.440;2023-04-07T07:26:28;98494.38;;;10.82;38.18
73016;BME280;61893;50.074;14.440;2023-04-07T07:28:58;98505.03;;;11.08;37.75
73016;BME280;61893;50.074;14.440;2023-04-07T07:31:26;98498.66;;;10.39;39.13
73016;BME280;61893;50.074;14.440;2023-04-07T07:33:55;98501.84;;;10.60;37.94
73016;BME280;61893;50.074;14.440;2023-04-07T07:36:23;98503.19;;;11.35;36.96
73016;BME280;61893;50.074;14.440;2023-04-07T07:39:19;98502.03;;;10.67;37.79
73016;BME280;61893;50.074;14.440;2023-04-07T07:41:46;98495.41;;;10.27;38.52
73016;BME280;61893;50.074;14.440;2023-04-07T07:45:00;98501.63;;;9.63;40.35
73016;BME280;61893;50.074;14.440;2023-04-07T07:48:04;98509.44;;;10.10;39.46
73016;BME280;61893;50.074;14.440;2023-04-07T07:51:50;98502.66;;;10.79;37.81
73016;BME280;61893;50.074;14.440;2023-04-07T07:54:49;98506.50;;;11.28;36.56
73016;BME280;61893;50.074;14.440;2023-04-07T07:58:01;98505.03;;;11.68;35.30
73016;BME280;61893;50.074;14.440;2023-04-07T08:01:26;98499.91;;;11.83;35.16
73016;BME280;61893;50.074;14.440;2023-04-07T08:05:31;98517.25;;;11.53;35.31
73016;BME280;61893;50.074;14.440;2023-04-07T08:08:54;98520.59;;;11.21;35.63
73016;BME280;61893;50.074;14.440;2023-04-07T08:11:53;98515.88;;;11.41;35.64
73016;BME280;61893;50.074;14.440;2023-04-07T08:14:47;98512.13;;;11.25;35.20
73016;BME280;61893;50.074;14.440;2023-04-07T08:18:11;98506.16;;;10.79;34.41
73016;BME280;61893;50.074;14.440;2023-04-07T08:21:16;98509.97;;;10.77;35.11
73016;BME280;61893;50.074;14.440;2023-04-07T08:24:23;98508.84;;;10.44;35.76
73016;BME280;61893;50.074;14.440;2023-04-07T08:27:24;98517.13;;;10.41;35.50
73016;BME280;61893;50.074;14.440;2023-04-07T08:31:02;98508.31;;;9.95;36.09
73016;BME280;61893;50.074;14.440;2023-04-07T08:34:23;98516.47;;;10.11;36.14
73016;BME280;61893;50.074;14.440;2023-04-07T08:37:49;98516.97;;;9.32;36.46
73016;BME280;61893;50.074;14.440;2023-04-07T08:41:50;98526.00;;;8.92;37.98
73016;BME280;61893;50.074;14.440;2023-04-07T08:44:49;98523.78;;;8.97;37.28
73016;BME280;61893;50.074;14.440;2023-04-07T08:47:33;98515.38;;;8.92;37.77
73016;BME280;61893;50.074;14.440;2023-04-07T08:50:32;98520.34;;;9.24;36.48
73016;BME280;61893;50.074;14.440;2023-04-07T08:54:22;98521.66;;;9.10;36.95
73016;BME280;61893;50.074;14.440;2023-04-07T08:57:18;98516.97;;;9.41;36.85
73016;BME280;61893;50.074;14.440;2023-04-07T09:01:20;98520.16;;;9.45;36.64
73016;BME280;61893;50.074;14.440;2023-04-07T09:04:52;98524.53;;;9.36;35.93
73016;BME280;61893;50.074;14.440;2023-04-07T09:08:03;98513.59;;;9.77;36.88
73016;BME280;61893;50.074;14.440;2023-04-07T09:11:20;98512.75;;;9.76;35.80
73016;BME280;61893;50.074;14.440;2023-04-07T09:14:38;98508.06;;;9.60;35.76
73016;BME280;61893;50.074;14.440;2023-04-07T09:18:02;98514.38;;;9.59;35.82
73016;BME280;61893;50.074;14.440;2023-04-07T09:21:16;98506.69;;;9.56;35.71
73016;BME280;61893;50.074;14.440;2023-04-07T09:28:09;98507.28;;;9.50;36.68
73016;BME280;61893;50.074;14.440;2023-04-07T09:30:38;98510.34;;;9.45;36.58
73016;BME280;61893;50.074;14.440;2023-04-07T09:33:36;98508.16;;;9.68;35.90
73016;BME280;61893;50.074;14.440;2023-04-07T09:36:04;98509.25;;;9.38;36.80
73016;BME280;61893;50.074;14.440;2023-04-07T09:38:38;98498.66;;;9.93;35.24
73016;BME280;61893;50.074;14.440;2023-04-07T09:41:12;98493.25;;;10.31;34.59
73016;BME280;61893;50.074;14.440;2023-04-07T09:43:43;98500.78;;;10.35;34.51
73016;BME280;61893;50.074;14.440;2023-04-07T09:46:15;98499.16;;;10.25;34.39
73016;BME280;61893;50.074;14.440;2023-04-07T09:48:44;98501.88;;;10.15;34.28
73016;BME280;61893;50.074;14.440;2023-04-07T09:51:13;98505.78;;;10.74;33.85
73016;BME280;61893;50.074;14.440;2023-04-07T09:54:37;98496.88;;;10.83;33.24
73016;BME280;61893;50.074;14.440;2023-04-07T09:57:58;98495.84;;;11.63;32.20
73016;BME280;61893;50.074;14.440;2023-04-07T10:01:08;98490.97;;;11.58;31.95
73016;BME280;61893;50.074;14.440;2023-04-07T10:03:38;98495.47;;;11.23;32.12
73016;BME280;61893;50.074;14.440;2023-04-07T10:06:04;98488.81;;;11.19;32.39
73016;BME280;61893;50.074;14.440;2023-04-07T10:08:39;98488.34;;;10.80;32.94
73016;BME280;61893;50.074;14.440;2023-04-07T10:11:06;98491.53;;;10.83;32.66
73016;BME280;61893;50.074;14.440;2023-04-07T10:13:39;98493.75;;;9.71;34.20
73016;BME280;61893;50.074;14.440;2023-04-07T10:16:06;98500.09;;;9.88;34.38
73016;BME280;61893;50.074;14.440;2023-04-07T10:18:35;98493.88;;;9.42;35.22
73016;BME280;61893;50.074;14.440;2023-04-07T10:21:03;98485.06;;;9.97;34.61
73016;BME280;61893;50.074;14.440;2023-04-07T10:23:58;98492.66;;;9.91;34.68
73016;BME280;61893;50.074;14.440;2023-04-07T10:26:52;98483.56;;;9.94;34.34
73016;BME280;61893;50.074;14.440;2023-04-07T10:29:22;98491.19;;;9.79;34.81
73016;BME280;61893;50.074;14.440;2023-04-07T10:32:11;98487.22;;;9.65;35.02
73016;BME280;61893;50.074;14.440;2023-04-07T10:35:19;98492.63;;;8.89;36.81
73016;BME280;61893;50.074;14.440;2023-04-07T10:38:23;98483.03;;;8.78;36.36
73016;BME280;61893;50.074;14.440;2023-04-07T10:49:06;98484.66;;;8.99;35.75
73016;BME280;61893;50.074;14.440;2023-04-07T10:55:29;98484.03;;;9.62;34.32
73016;BME280;61893;50.074;14.440;2023-04-07T10:58:28;98479.34;;;8.99;34.61
73016;BME280;61893;50.074;14.440;2023-04-07T11:01:26;98478.91;;;9.13;34.91
73016;BME280;61893;50.074;14.440;2023-04-07T11:04:46;98473.00;;;9.57;34.20
73016;BME280;61893;50.074;14.440;2023-04-07T11:08:07;98479.53;;;9.62;33.89
73016;BME280;61893;50.074;14.440;2023-04-07T11:10:56;98479.72;;;9.79;33.82
73016;BME280;61893;50.074;14.440;2023-04-07T11:14:23;98475.19;;;10.07;33.70
73016;BME280;61893;50.074;14.440;2023-04-07T11:18:07;98468.72;;;9.74;33.50
73016;BME280;61893;50.074;14.440;2023-04-07T11:21:01;98466.88;;;10.02;33.76
73016;BME280;61893;50.074;14.440;2023-04-07T11:27:36;98472.63;;;9.97;32.91
73016;BME280;61893;50.074;14.440;2023-04-07T11:31:10;98461.59;;;10.10;33.01
73016;BME280;61893;50.074;14.440;2023-04-07T11:34:54;98463.31;;;10.47;32.31
73016;BME280;61893;50.074;14.440;2023-04-07T11:38:17;98463.63;;;10.62;32.07
73016;BME280;61893;50.074;14.440;2023-04-07T11:41:29;98460.22;;;10.77;32.22
73016;BME280;61893;50.074;14.440;2023-04-07T11:44:52;98467.72;;;11.00;31.60
73016;BME280;61893;50.074;14.440;2023-04-07T11:47:54;98460.53;;;10.74;32.47
73016;BME280;61893;50.074;14.440;2023-04-07T11:50:43;98461.38;;;10.75;32.66
73016;BME280;61893;50.074;14.440;2023-04-07T11:53:12;98458.31;;;11.14;32.57
73016;BME280;61893;50.074;14.440;2023-04-07T11:55:38;98458.34;;;11.22;32.27
73016;BME280;61893;50.074;14.440;2023-04-07T11:58:05;98455.25;;;11.77;31.66
73016;BME280;61893;50.074;14.440;2023-04-07T12:00:52;98457.69;;;10.68;33.47
73016;BME280;61893;50.074;14.440;2023-04-07T12:03:19;98455.84;;;11.20;32.40
73016;BME280;61893;50.074;14.440;2023-04-07T12:05:51;98455.69;;;11.56;32.00
73016;BME280;61893;50.074;14.440;2023-04-07T12:08:18;98459.97;;;11.49;32.37
73016;BME280;61893;50.074;14.440;2023-04-07T12:11:26;98457.22;;;11.67;32.35
73016;BME280;61893;50.074;14.440;2023-04-07T12:14:56;98453.91;;;11.81;32.25
73016;BME280;61893;50.074;14.440;2023-04-07T12:18:14;98448.31;;;11.92;31.97
73016;BME280;61893;50.074;14.440;2023-04-07T12:21:21;98447.00;;;11.97;32.03
73016;BME280;61893;50.074;14.440;2023-04-07T12:24:26;98443.88;;;12.17;31.66
73016;BME280;61893;50.074;14.440;2023-04-07T12:27:32;98444.00;;;11.91;31.78
73016;BME280;61893;50.074;14.440;2023-04-07T12:30:54;98440.19;;;12.02;31.55
73016;BME280;61893;50.074;14.440;2023-04-07T12:34:01;98441.53;;;12.06;31.57
73016;BME280;61893;50.074;14.440;2023-04-07T12:37:09;98447.09;;;11.70;32.23
73016;BME280;61893;50.074;14.440;2023-04-07T12:41:15;98446.16;;;11.45;33.17
73016;BME280;61893;50.074;14.440;2023-04-07T12:44:47;98448.56;;;11.65;32.59
73016;BME280;61893;50.074;14.440;2023-04-07T12:48:11;98447.25;;;11.77;32.76
73016;BME280;61893;50.074;14.440;2023-04-07T12:51:25;98445.50;;;11.94;32.38
73016;BME280;61893;50.074;14.440;2023-04-07T12:55:06;98446.47;;;11.85;32.78
73016;BME280;61893;50.074;14.440;2023-04-07T12:58:21;98445.47;;;11.09;34.12
73016;BME280;61893;50.074;14.440;2023-04-07T13:01:45;98447.44;;;11.07;34.46
73016;BME280;61893;50.074;14.440;2023-04-07T13:05:02;98443.22;;;10.70;35.24
73016;BME280;61893;50.074;14.440;2023-04-07T13:08:29;98437.66;;;11.16;35.01
73016;BME280;61893;50.074;14.440;2023-04-07T13:11:54;98444.94;;;11.05;35.24
73016;BME280;61893;50.074;14.440;2023-04-07T13:14:44;98440.63;;;11.04;34.39
73016;BME280;61893;50.074;14.440;2023-04-07T13:17:43;98440.50;;;10.88;35.22
73016;BME280;61893;50.074;14.440;2023-04-07T13:20:39;98438.28;;;11.10;35.03
73016;BME280;61893;50.074;14.440;2023-04-07T13:23:28;98435.81;;;10.56;34.87
73016;BME280;61893;50.074;14.440;2023-04-07T13:26:35;98436.38;;;10.94;34.51
73016;BME280;61893;50.074;14.440;2023-04-07T13:29:24;98441.78;;;10.76;34.70
73016;BME280;61893;50.074;14.440;2023-04-07T13:32:33;98439.38;;;10.47;36.25
73016;BME280;61893;50.074;14.440;2023-04-07T13:36:17;98433.66;;;10.59;36.01
73016;BME280;61893;50.074;14.440;2023-04-07T13:39:45;98433.56;;;10.69;35.54
73016;BME280;61893;50.074;14.440;2023-04-07T13:42:55;98434.91;;;10.47;36.53
73016;BME280;61893;50.074;14.440;2023-04-07T13:45:37;98430.59;;;10.19;37.42
73016;BME280;61893;50.074;14.440;2023-04-07T13:48:24;98433.66;;;10.24;37.31
73016;BME280;61893;50.074;14.440;2023-04-07T13:52:04;98429.44;;;10.31;37.56
73016;BME280;61893;50.074;14.440;2023-04-07T13:55:23;98430.06;;;10.69;37.18
73016;BME280;61893;50.074;14.440;2023-04-07T13:58:49;98436.59;;;10.30;37.89
73016;BME280;61893;50.074;14.440;2023-04-07T14:02:47;98438.59;;;10.54;36.80
73016;BME280;61893;50.074;14.440;2023-04-07T14:05:58;98431.03;;;10.42;37.32
73016;BME280;61893;50.074;14.440;2023-04-07T14:10:17;98429.09;;;9.80;39.44
73016;BME280;61893;50.074;14.440;2023-04-07T14:14:09;98431.09;;;9.96;39.14
73016;BME280;61893;50.074;14.440;2023-04-07T14:16:59;98420.72;;;9.75;38.88
73016;BME280;61893;50.074;14.440;2023-04-07T14:20:36;98428.34;;;9.42;39.56
73016;BME280;61893;50.074;14.440;2023-04-07T14:23:41;98430.44;;;9.39;40.19
73016;BME280;61893;50.074;14.440;2023-04-07T14:27:18;98422.91;;;9.62;39.46
73016;BME280;61893;50.074;14.440;2023-04-07T14:30:54;98424.25;;;9.48;39.74
73016;BME280;61893;50.074;14.440;2023-04-07T14:33:55;98417.69;;;9.70;39.55
73016;BME280;61893;50.074;14.440;2023-04-07T14:36:36;98414.91;;;10.07;38.91
73016;BME280;61893;50.074;14.440;2023-04-07T14:39:43;98409.72;;;10.24;38.49
73016;BME280;61893;50.074;14.440;2023-04-07T14:43:16;98413.63;;;10.29;38.74
73016;BME280;61893;50.074;14.440;2023-04-07T14:46:49;98405.53;;;10.21;39.42
73016;BME280;61893;50.074;14.440;2023-04-07T14:50:07;98411.69;;;10.57;38.22
73016;BME280;61893;50.074;14.440;2023-04-07T14:53:33;98401.66;;;11.03;37.67
73016;BME280;61893;50.074;14.440;2023-04-07T14:56:45;98409.28;;;10.72;37.63
73016;BME280;61893;50.074;14.440;2023-04-07T14:59:51;98408.19;;;10.57;38.15
73016;BME280;61893;50.074;14.440;2023-04-07T15:03:20;98403.81;;;9.94;39.56
73016;BME280;61893;50.074;14.440;2023-04-07T15:06:39;98405.19;;;10.16;39.00
73016;BME280;61893;50.074;14.440;2023-04-07T15:10:36;98407.94;;;9.61;41.22
73016;BME280;61893;50.074;14.440;2023-04-07T15:14:41;98411.50;;;9.24;43.14
73016;BME280;61893;50.074;14.440;2023-04-07T15:17:56;98408.44;;;8.91;45.14
73016;BME280;61893;50.074;14.440;2023-04-07T15:20:59;98416.00;;;8.76;45.67
73016;BME280;61893;50.074;14.440;2023-04-07T15:24:10;98415.72;;;8.70;46.46
73016;BME280;61893;50.074;14.440;2023-04-07T15:27:15;98414.78;;;8.71;47.77
73016;BME280;61893;50.074;14.440;2023-04-07T15:30:42;98416.47;;;8.52;49.28
73016;BME280;61893;50.074;14.440;2023-04-07T15:34:03;98419.81;;;8.54;50.15
73016;BME280;61893;50.074;14.440;2023-04-07T15:36:55;98411.97;;;8.72;49.73
73016;BME280;61893;50.074;14.440;2023-04-07T15:39:30;98411.88;;;8.64;50.30